Time;durP1;ratioP1;P1;durP2;ratioP2;P2;SDS_P1;SDS_P2;PMS_P1;PMS_P2;Temp;Humidity;BMP_temperature;BMP_pressure;BME280_temperature;BME280_humidity;BME280_pressure;Samples;Min_cycle;Max_cycle;Signal;HPM_P1;HPM_P2
2023/07/14 00:00:47;;;;;;;5.03;2.10;;;20.50;96.00;;;;;;5047269;28;20354;-77
2023/07/14 00:03:18;;;;;;;3.22;2.00;;;20.50;96.00;;;;;;5026707;28;20451;-77
2023/07/14 00:05:44;;;;;;;2.97;1.70;;;20.50;96.10;;;;;;5037553;28;20026;-77
2023/07/14 00:08:17;;;;;;;2.33;1.70;;;20.50;96.10;;;;;;5037348;28;20076;-77
2023/07/14 00:10:43;;;;;;;4.18;1.75;;;20.50;96.10;;;;;;5044759;28;20067;-77
2023/07/14 00:13:09;;;;;;;6.38;1.88;;;20.50;96.10;;;;;;5042894;28;20021;-77
2023/07/14 00:15:37;;;;;;;3.63;1.80;;;20.50;96.10;;;;;;5038574;28;20383;-77
2023/07/14 00:18:24;;;;;;;2.65;1.70;;;20.50;96.10;;;;;;5046076;28;20377;-78
2023/07/14 00:20:50;;;;;;;3.88;2.40;;;20.50;96.10;;;;;;5041103;28;20037;-77
2023/07/14 00:23:16;;;;;;;6.10;2.25;;;20.50;96.20;;;;;;5048097;28;20470;-77
2023/07/14 00:25:42;;;;;;;3.90;1.83;;;20.50;96.20;;;;;;5045822;28;20401;-78
2023/07/14 00:28:34;;;;;;;6.00;1.85;;;20.50;96.20;;;;;;5046262;28;20026;-77
2023/07/14 00:31:00;;;;;;;7.80;2.45;;;20.50;96.20;;;;;;5040936;28;20033;-78
2023/07/14 00:33:25;;;;;;;4.78;1.75;;;20.50;96.20;;;;;;5042891;28;20491;-77
2023/07/14 00:35:51;;;;;;;2.40;1.60;;;20.50;96.30;;;;;;5043197;28;20433;-77
2023/07/14 00:38:17;;;;;;;4.50;1.73;;;20.50;96.30;;;;;;5039018;28;20100;-77
2023/07/14 00:40:47;;;;;;;5.60;1.90;;;20.50;96.30;;;;;;5039844;28;20037;-77
2023/07/14 00:43:20;;;;;;;5.63;1.80;;;20.50;96.30;;;;;;5044520;28;20025;-77
2023/07/14 00:45:48;;;;;;;9.43;1.85;;;20.50;96.30;;;;;;5021504;28;20426;-78
2023/07/14 00:48:16;;;;;;;3.17;1.95;;;20.40;96.30;;;;;;5040835;28;20028;-77
2023/07/14 00:50:44;;;;;;;6.53;1.70;;;20.50;96.40;;;;;;5040331;28;20024;-77
2023/07/14 00:53:33;;;;;;;5.47;1.58;;;20.50;96.30;;;;;;5046955;28;20029;-77
2023/07/14 00:56:28;;;;;;;7.00;1.65;;;20.50;96.30;;;;;;5046228;28;20028;-77
2023/07/14 00:58:53;;;;;;;3.03;1.80;;;20.50;96.40;;;;;;5038076;28;20044;-78
2023/07/14 01:01:22;;;;;;;7.28;1.85;;;20.40;96.30;;;;;;5026531;28;20026;-77
2023/07/14 01:03:55;;;;;;;2.83;1.70;;;20.40;96.30;;;;;;5041709;28;20029;-78
2023/07/14 01:06:26;;;;;;;9.93;1.85;;;20.40;96.40;;;;;;5045451;28;20108;-77
2023/07/14 01:09:12;;;;;;;3.38;1.98;;;20.40;96.40;;;;;;5043184;28;20025;-78
2023/07/14 01:11:44;;;;;;;8.13;1.80;;;20.40;96.40;;;;;;5041991;28;20021;-77
2023/07/14 01:14:17;;;;;;;2.58;1.33;;;20.40;96.50;;;;;;5030135;28;20126;-78
2023/07/14 01:16:43;;;;;;;3.53;1.70;;;20.40;96.40;;;;;;5044564;28;20072;-77
2023/07/14 01:19:29;;;;;;;6.47;1.50;;;20.40;96.50;;;;;;5038218;28;20033;-78
2023/07/14 01:22:06;;;;;;;1.85;1.40;;;20.40;96.80;;;;;;5044206;28;20033;-77
2023/07/14 01:24:39;;;;;;;4.88;1.60;;;20.40;96.50;;;;;;5045323;28;20029;-77
2023/07/14 01:27:08;;;;;;;1.92;1.67;;;20.40;96.50;;;;;;5042651;28;20013;-77
2023/07/14 01:29:34;;;;;;;1.88;1.33;;;20.40;96.50;;;;;;5045819;28;20021;-77
2023/07/14 01:32:02;;;;;;;2.33;1.50;;;20.40;96.50;;;;;;5043316;28;20029;-78
2023/07/14 01:34:28;;;;;;;2.45;1.48;;;20.40;96.50;;;;;;5039801;28;20029;-77
2023/07/14 01:36:58;;;;;;;4.30;1.73;;;20.40;96.50;;;;;;5044533;28;20041;-78
2023/07/14 01:39:26;;;;;;;5.28;1.48;;;20.40;96.60;;;;;;5039576;28;20072;-78
2023/07/14 01:41:52;;;;;;;7.63;1.88;;;20.40;96.60;;;;;;5040289;28;20025;-78
2023/07/14 01:44:20;;;;;;;4.70;1.50;;;20.40;96.50;;;;;;5044523;28;20032;-78
2023/07/14 01:46:47;;;;;;;1.95;1.40;;;20.40;96.50;;;;;;5042221;28;20165;-77
2023/07/14 01:49:29;;;;;;;4.65;1.48;;;20.40;96.50;;;;;;5041981;28;20062;-77
2023/07/14 01:51:59;;;;;;;7.25;1.70;;;20.40;96.50;;;;;;5025090;28;20397;-77
2023/07/14 01:54:41;;;;;;;1.77;1.30;;;20.40;96.50;;;;;;5044968;28;20021;-78
2023/07/14 01:57:14;;;;;;;5.15;1.58;;;20.40;96.60;;;;;;5046281;28;20057;-78
2023/07/14 01:59:45;;;;;;;3.55;1.25;;;20.40;96.60;;;;;;5040719;28;20036;-78
2023/07/14 02:02:18;;;;;;;3.17;1.60;;;20.40;96.60;;;;;;5042116;28;20580;-77
2023/07/14 02:04:46;;;;;;;3.70;1.50;;;20.40;96.60;;;;;;5032310;28;20036;-78
2023/07/14 02:07:13;;;;;;;22.23;2.00;;;20.40;96.60;;;;;;5041095;28;20052;-78
2023/07/14 02:09:40;;;;;;;3.83;1.40;;;20.40;96.60;;;;;;5044119;28;20021;-78
2023/07/14 02:12:10;;;;;;;8.55;1.70;;;20.40;96.60;;;;;;5043522;28;20036;-78
2023/07/14 02:14:52;;;;;;;4.45;1.45;;;20.40;96.60;;;;;;5036506;28;20075;-78
2023/07/14 02:17:30;;;;;;;6.03;1.60;;;20.40;96.60;;;;;;5037105;28;20151;-78
2023/07/14 02:20:01;;;;;;;5.03;1.73;;;20.40;96.70;;;;;;5039764;28;20041;-78
2023/07/14 02:22:28;;;;;;;2.95;1.77;;;20.40;96.70;;;;;;5046106;28;20025;-78
2023/07/14 02:24:55;;;;;;;3.10;1.42;;;20.30;96.60;;;;;;5046197;28;20377;-78
2023/07/14 02:27:21;;;;;;;2.28;1.50;;;20.30;96.60;;;;;;5023111;28;20025;-78
2023/07/14 02:29:46;;;;;;;9.98;1.65;;;20.40;96.70;;;;;;5038122;28;20099;-78
2023/07/14 02:32:28;;;;;;;8.80;1.73;;;20.30;96.70;;;;;;5033588;28;20391;-78
2023/07/14 02:35:00;;;;;;;2.45;1.40;;;20.30;96.70;;;;;;5039912;28;20036;-78
2023/07/14 02:38:03;;;;;;;4.07;1.33;;;20.30;96.70;;;;;;5034184;28;20021;-77
2023/07/14 02:40:37;;;;;;;4.55;1.63;;;20.30;96.70;;;;;;5035017;28;20067;-78
2023/07/14 02:43:08;;;;;;;4.40;1.92;;;20.30;96.70;;;;;;5026689;28;20029;-78
2023/07/14 02:45:38;;;;;;;3.05;1.60;;;20.30;96.70;;;;;;5038804;28;20026;-78
2023/07/14 02:48:08;;;;;;;3.50;1.58;;;20.30;96.70;;;;;;5034645;28;20477;-78
2023/07/14 02:50:34;;;;;;;;;;;20.30;96.70;;;;;;5034751;28;20025;-78
2023/07/14 02:53:00;;;;;;;3.85;1.30;;;20.30;96.70;;;;;;5038154;28;19912;-78
2023/07/14 02:55:25;;;;;;;3.42;1.70;;;20.30;96.70;;;;;;5032101;28;20067;-78
2023/07/14 02:57:51;;;;;;;5.53;1.77;;;20.30;96.70;;;;;;5044670;28;20474;-77
2023/07/14 03:00:18;;;;;;;7.65;1.80;;;20.30;96.70;;;;;;5040009;28;20013;-78
2023/07/14 03:02:43;;;;;;;3.95;1.35;;;20.30;96.70;;;;;;5036778;28;20021;-78
2023/07/14 03:05:11;;;;;;;2.85;1.40;;;20.30;96.70;;;;;;5040407;28;20028;-78
2023/07/14 03:07:37;;;;;;;2.92;1.52;;;20.40;96.80;;;;;;5034376;28;20101;-78
2023/07/14 03:10:04;;;;;;;3.33;1.20;;;20.30;96.80;;;;;;5032947;28;20033;-79
2023/07/14 03:12:30;;;;;;;8.40;1.77;;;20.30;96.80;;;;;;5043266;28;20474;-78
2023/07/14 03:14:56;;;;;;;9.38;1.83;;;20.30;96.80;;;;;;5045749;28;20029;-78
2023/07/14 03:17:22;;;;;;;2.38;1.35;;;20.30;96.80;;;;;;5040944;28;20021;-78
2023/07/14 03:19:47;;;;;;;4.78;2.05;;;20.30;96.80;;;;;;5034728;28;20026;-78
2023/07/14 03:22:13;;;;;;;2.95;1.40;;;20.30;96.80;;;;;;5056682;28;20496;-78
2023/07/14 03:24:39;;;;;;;2.92;1.42;;;20.30;96.80;;;;;;5055434;28;20021;-78
2023/07/14 03:27:04;;;;;;;3.60;1.63;;;20.30;96.80;;;;;;5056618;28;20053;-78
2023/07/14 03:29:30;;;;;;;2.22;1.45;;;20.30;96.80;;;;;;5069926;28;20042;-78
2023/07/14 03:31:56;;;;;;;8.77;1.60;;;20.30;96.80;;;;;;5067657;28;20029;-78
2023/07/14 03:34:22;;;;;;;2.25;1.60;;;20.30;96.80;;;;;;5067957;28;20103;-78
2023/07/14 03:36:49;;;;;;;4.22;1.58;;;20.30;96.80;;;;;;5060495;28;20452;-78
2023/07/14 03:39:20;;;;;;;6.75;1.65;;;20.30;96.80;;;;;;5058436;28;20519;-78
2023/07/14 03:41:45;;;;;;;2.53;1.60;;;20.30;96.80;;;;;;5036944;28;20469;-78
2023/07/14 03:44:11;;;;;;;5.30;1.85;;;20.30;96.80;;;;;;5068365;28;20032;-78
2023/07/14 03:46:36;;;;;;;3.13;1.90;;;20.30;96.90;;;;;;5068054;28;20063;-78
2023/07/14 03:49:02;;;;;;;2.80;1.48;;;20.30;96.80;;;;;;5068373;28;20036;-78
2023/07/14 03:51:30;;;;;;;2.58;1.45;;;20.30;96.90;;;;;;5065132;28;20025;-78
2023/07/14 03:53:56;;;;;;;7.47;1.77;;;20.30;96.90;;;;;;5067310;28;20480;-78
2023/07/14 03:56:21;;;;;;;2.13;1.30;;;20.20;96.80;;;;;;5066230;28;20040;-78
2023/07/14 03:58:47;;;;;;;4.65;1.65;;;20.30;96.90;;;;;;5056016;28;20144;-78
2023/07/14 04:01:13;;;;;;;2.55;1.30;;;20.30;96.80;;;;;;5055138;28;20033;-78
2023/07/14 04:03:39;;;;;;;2.40;1.48;;;20.30;96.80;;;;;;5070505;28;20025;-77
2023/07/14 04:06:05;;;;;;;3.67;1.30;;;20.30;96.90;;;;;;5070601;28;20385;-78
2023/07/14 04:08:38;;;;;;;2.30;1.67;;;20.30;96.90;;;;;;5065938;28;20040;-78
2023/07/14 04:11:04;;;;;;;4.72;1.50;;;20.30;96.90;;;;;;5064551;28;20021;-78
2023/07/14 04:13:31;;;;;;;3.58;1.63;;;20.30;96.90;;;;;;5068638;28;20058;-77
2023/07/14 04:15:57;;;;;;;4.00;1.77;;;20.30;96.90;;;;;;5069801;28;20469;-78
2023/07/14 04:18:23;;;;;;;3.05;1.70;;;20.20;96.90;;;;;;5073464;28;20077;-78
2023/07/14 04:20:49;;;;;;;5.45;1.60;;;20.20;96.90;;;;;;5059476;28;20037;-78
2023/07/14 04:23:18;;;;;;;3.67;2.10;;;20.30;96.90;;;;;;5044996;28;20025;-77
2023/07/14 04:25:44;;;;;;;3.10;1.70;;;20.20;96.90;;;;;;5043829;28;20060;-78
2023/07/14 04:28:10;;;;;;;6.10;1.70;;;20.20;96.90;;;;;;5046670;28;20052;-78
2023/07/14 04:30:36;;;;;;;11.00;2.10;;;20.20;96.90;;;;;;5042672;28;20048;-77
2023/07/14 04:33:02;;;;;;;4.28;1.90;;;20.20;96.90;;;;;;5042846;28;20070;-77
2023/07/14 04:35:27;;;;;;;4.28;1.95;;;20.20;96.90;;;;;;5049246;28;20017;-78
2023/07/14 04:37:53;;;;;;;9.40;1.85;;;20.20;97.00;;;;;;5046997;28;20035;-79
2023/07/14 04:40:19;;;;;;;4.68;1.77;;;20.20;96.90;;;;;;5043469;28;20021;-78
2023/07/14 04:42:47;;;;;;;2.60;1.90;;;20.20;96.90;;;;;;5043986;28;20473;-79
2023/07/14 04:45:12;;;;;;;3.28;1.92;;;20.20;96.90;;;;;;5039830;28;20022;-79
2023/07/14 04:47:38;;;;;;;1.95;1.70;;;20.20;97.00;;;;;;5049202;28;20032;-79
2023/07/14 04:50:04;;;;;;;5.72;2.13;;;20.20;97.00;;;;;;5027979;28;20064;-78
2023/07/14 04:52:29;;;;;;;10.82;2.30;;;20.20;96.70;;;;;;5027250;28;20021;-78
2023/07/14 04:54:55;;;;;;;6.60;2.10;;;19.80;92.60;;;;;;5032562;28;20029;-78
2023/07/14 04:57:21;;;;;;;9.48;2.35;;;19.50;92.30;;;;;;5028918;28;20036;-79
2023/07/14 04:59:46;;;;;;;9.73;2.30;;;19.30;92.20;;;;;;5029172;28;20076;-78
2023/07/14 05:02:12;;;;;;;4.53;2.05;;;19.20;92.20;;;;;;5025148;28;20025;-79
2023/07/14 05:04:41;;;;;;;7.95;2.38;;;19.10;92.30;;;;;;5042228;28;20496;-78
2023/07/14 05:07:07;;;;;;;10.65;2.20;;;19.00;92.10;;;;;;5041876;28;20111;-80
2023/07/14 05:09:34;;;;;;;5.10;2.00;;;19.00;92.00;;;;;;5027352;28;20233;-80
2023/07/14 05:12:00;;;;;;;6.97;2.08;;;18.90;91.80;;;;;;5031282;28;20359;-81
2023/07/14 05:14:28;;;;;;;11.25;2.05;;;18.90;91.80;;;;;;5042635;28;20031;-80
2023/07/14 05:16:54;;;;;;;6.57;2.30;;;18.90;92.20;;;;;;5047564;28;20025;-80
2023/07/14 05:19:20;;;;;;;14.32;2.47;;;18.90;92.20;;;;;;5044022;28;20088;-80
2023/07/14 05:21:46;;;;;;;6.88;2.22;;;18.90;92.10;;;;;;5047108;28;20056;-80
2023/07/14 05:24:11;;;;;;;12.07;2.20;;;18.90;91.90;;;;;;5043361;28;20087;-80
2023/07/14 05:26:38;;;;;;;6.25;2.05;;;18.80;92.10;;;;;;5048578;28;20397;-80
2023/07/14 05:29:05;;;;;;;18.88;2.47;;;18.80;92.30;;;;;;5047573;28;20144;-80
2023/07/14 05:31:32;;;;;;;12.95;2.40;;;18.90;92.30;;;;;;5028035;28;20082;-80
2023/07/14 05:33:58;;;;;;;7.88;2.35;;;18.90;92.30;;;;;;5044940;28;20466;-81
2023/07/14 05:36:24;;;;;;;11.98;2.28;;;18.90;92.40;;;;;;5048761;28;20017;-81
2023/07/14 05:38:50;;;;;;;11.32;2.17;;;18.90;92.30;;;;;;5046965;28;20358;-80
2023/07/14 05:41:16;;;;;;;6.28;2.83;;;18.90;92.20;;;;;;5045098;28;20045;-80
2023/07/14 05:43:42;;;;;;;15.05;2.35;;;19.00;92.60;;;;;;5043142;28;20489;-80
2023/07/14 05:46:07;;;;;;;5.45;2.47;;;19.00;92.30;;;;;;5040959;28;20071;-81
2023/07/14 05:48:33;;;;;;;10.23;2.35;;;19.00;92.50;;;;;;5038380;28;20509;-80
2023/07/14 05:50:58;;;;;;;11.50;2.47;;;19.00;92.20;;;;;;5036048;28;20083;-81
2023/07/14 05:53:24;;;;;;;5.32;2.60;;;19.00;92.30;;;;;;5033502;28;20079;-81
2023/07/14 05:55:50;;;;;;;6.25;1.95;;;19.00;92.50;;;;;;5041938;28;20017;-81
2023/07/14 05:58:16;;;;;;;6.97;2.33;;;19.00;92.60;;;;;;5036025;28;20025;-81
2023/07/14 06:00:42;;;;;;;9.80;2.47;;;19.00;92.80;;;;;;5044928;28;20035;-81
2023/07/14 06:03:18;;;;;;;7.25;2.45;;;18.90;92.30;;;;;;5037036;28;20018;-81
2023/07/14 06:05:44;;;;;;;7.15;1.92;;;18.90;92.20;;;;;;5034315;28;20075;-81
2023/07/14 06:08:09;;;;;;;10.18;1.92;;;18.90;92.00;;;;;;5033796;28;20029;-81
2023/07/14 06:10:35;;;;;;;8.75;2.25;;;18.90;92.20;;;;;;5042200;28;20502;-81
2023/07/14 06:13:01;;;;;;;6.20;1.85;;;19.00;92.40;;;;;;5042880;28;20029;-81
2023/07/14 06:15:28;;;;;;;9.43;2.15;;;19.00;92.50;;;;;;5041211;28;20025;-81
2023/07/14 06:17:53;;;;;;;3.60;1.83;;;19.10;92.60;;;;;;5029354;28;20021;-81
2023/07/14 06:20:20;;;;;;;3.95;2.00;;;19.10;92.70;;;;;;5037556;28;21223;-82
2023/07/14 06:22:48;;;;;;;6.60;2.10;;;19.10;92.70;;;;;;5039270;28;20022;-79
2023/07/14 06:25:14;;;;;;;4.57;1.63;;;19.20;92.80;;;;;;5038537;28;20106;-79
2023/07/14 06:27:39;;;;;;;7.68;2.13;;;19.30;92.70;;;;;;5046023;28;20485;-80
2023/07/14 06:30:05;;;;;;;7.15;2.25;;;19.30;92.60;;;;;;5040234;28;20025;-79
2023/07/14 06:32:31;;;;;;;6.10;2.00;;;19.30;92.70;;;;;;5023873;28;20028;-79
2023/07/14 06:34:57;;;;;;;5.57;1.95;;;19.40;92.70;;;;;;5039355;28;20041;-80
2023/07/14 06:37:24;;;;;;;8.27;2.38;;;19.40;92.50;;;;;;5038449;28;20029;-79
2023/07/14 06:39:50;;;;;;;9.27;2.08;;;19.40;92.30;;;;;;5042101;28;20114;-79
2023/07/14 06:42:16;;;;;;;3.03;1.75;;;19.40;92.10;;;;;;5028510;28;20059;-79
2023/07/14 06:44:42;;;;;;;3.22;1.83;;;19.50;91.40;;;;;;5041668;28;20017;-79
2023/07/14 06:47:08;;;;;;;8.50;1.60;;;19.60;91.40;;;;;;5041679;28;20485;-80
2023/07/14 06:49:34;;;;;;;4.32;1.77;;;19.60;90.80;;;;;;5026997;28;20029;-79
2023/07/14 06:52:00;;;;;;;9.70;2.15;;;19.70;90.40;;;;;;5039987;28;20010;-80
2023/07/14 06:54:25;;;;;;;6.32;1.80;;;19.80;90.30;;;;;;5040487;28;20025;-79
2023/07/14 06:56:52;;;;;;;7.70;1.98;;;19.90;90.30;;;;;;5026424;28;20440;-80
2023/07/14 06:59:17;;;;;;;3.00;1.60;;;19.80;89.80;;;;;;5047709;28;20033;-79
2023/07/14 07:01:43;;;;;;;5.20;2.15;;;19.90;89.80;;;;;;5041328;28;20087;-80
2023/07/14 07:04:08;;;;;;;7.78;2.03;;;19.90;90.30;;;;;;5023005;28;20554;-79
2023/07/14 07:06:34;;;;;;;6.53;1.98;;;20.00;88.40;;;;;;5025260;28;20021;-80
2023/07/14 07:09:00;;;;;;;3.50;1.80;;;20.00;88.40;;;;;;5024628;28;20017;-80
2023/07/14 07:11:25;;;;;;;6.10;2.05;;;20.00;88.60;;;;;;5043968;28;20024;-79
2023/07/14 07:13:51;;;;;;;3.92;2.00;;;20.00;89.10;;;;;;5044799;28;20466;-80
2023/07/14 07:16:16;;;;;;;4.07;2.03;;;20.10;88.90;;;;;;5046467;28;20025;-80
2023/07/14 07:18:42;;;;;;;7.07;2.38;;;20.20;87.60;;;;;;5026125;28;20025;-81
2023/07/14 07:21:12;;;;;;;7.88;2.03;;;20.20;87.40;;;;;;5041182;28;20122;-80
2023/07/14 07:23:37;;;;;;;6.63;1.70;;;20.10;86.60;;;;;;5022956;28;20373;-80
2023/07/14 07:26:03;;;;;;;5.80;2.08;;;20.10;86.50;;;;;;5025166;28;20013;-80
2023/07/14 07:28:29;;;;;;;3.55;1.80;;;20.20;87.20;;;;;;5025591;28;20025;-80
2023/07/14 07:30:54;;;;;;;4.35;1.58;;;20.20;87.00;;;;;;5024966;28;20028;-79
2023/07/14 07:33:20;;;;;;;11.15;2.10;;;20.10;88.20;;;;;;5038383;28;20082;-81
2023/07/14 07:35:46;;;;;;;4.28;1.88;;;20.20;86.20;;;;;;5040769;28;20080;-82
2023/07/14 07:38:13;;;;;;;2.55;1.65;;;20.20;86.90;;;;;;5041123;28;20104;-82
2023/07/14 07:40:40;;;;;;;7.80;2.35;;;20.20;85.60;;;;;;5046011;28;20021;-82
2023/07/14 07:43:06;;;;;;;4.57;2.00;;;20.20;86.10;;;;;;5045647;28;20025;-80
2023/07/14 07:45:32;;;;;;;2.67;1.50;;;20.20;86.50;;;;;;5025106;28;20040;-80
2023/07/14 07:47:58;;;;;;;5.18;2.05;;;20.30;86.60;;;;;;5040629;28;20021;-80
2023/07/14 07:50:26;;;;;;;7.43;1.85;;;20.30;85.50;;;;;;5022753;28;20482;-79
2023/07/14 07:52:52;;;;;;;5.40;2.08;;;20.20;86.60;;;;;;5044471;28;20509;-80
2023/07/14 07:55:18;;;;;;;6.10;2.05;;;20.20;85.10;;;;;;5041783;28;20024;-80
2023/07/14 07:57:47;;;;;;;4.40;1.98;;;20.30;86.20;;;;;;5041730;28;20017;-80
2023/07/14 08:00:13;;;;;;;7.32;2.15;;;20.30;86.30;;;;;;5038353;28;20105;-81
2023/07/14 08:02:41;;;;;;;7.30;2.15;;;20.30;88.40;;;;;;5021863;28;20112;-80
2023/07/14 08:05:07;;;;;;;5.80;1.70;;;20.40;87.40;;;;;;5042326;28;20021;-81
2023/07/14 08:07:32;;;;;;;6.68;2.40;;;20.40;85.40;;;;;;5025632;28;20021;-79
2023/07/14 08:09:58;;;;;;;18.33;1.98;;;20.50;86.20;;;;;;5020544;28;20638;-78
2023/07/14 08:12:25;;;;;;;7.28;1.92;;;20.60;87.40;;;;;;5035651;28;20017;-75
2023/07/14 08:14:51;;;;;;;4.38;1.90;;;20.50;86.10;;;;;;5026988;28;20482;-79
2023/07/14 08:17:17;;;;;;;9.50;1.75;;;20.60;87.50;;;;;;5022454;28;20509;-79
2023/07/14 08:19:42;;;;;;;7.28;1.80;;;20.50;87.60;;;;;;5034745;28;20029;-79
2023/07/14 08:22:08;;;;;;;61.10;3.78;;;20.50;87.70;;;;;;5043938;28;20033;-79
2023/07/14 08:24:34;;;;;;;46.05;3.72;;;20.50;87.10;;;;;;5040378;28;20025;-79
2023/07/14 08:26:59;;;;;;;4.15;1.88;;;20.60;87.50;;;;;;5041555;28;20382;-80
2023/07/14 08:29:25;;;;;;;7.63;2.60;;;20.60;88.20;;;;;;5018994;28;20044;-79
2023/07/14 08:31:50;;;;;;;7.75;1.98;;;20.60;86.80;;;;;;5038748;28;20488;-79
2023/07/14 08:34:16;;;;;;;5.60;2.00;;;20.60;87.70;;;;;;5044960;28;20053;-79
2023/07/14 08:36:42;;;;;;;2.40;1.67;;;20.60;86.80;;;;;;5048062;28;20029;-79
2023/07/14 08:39:07;;;;;;;4.60;2.10;;;20.60;87.30;;;;;;5024308;28;20027;-79
2023/07/14 08:41:41;;;;;;;7.47;2.42;;;20.70;86.80;;;;;;5037214;28;20033;-80
2023/07/14 08:44:17;;;;;;;7.63;2.28;;;20.70;87.90;;;;;;5040098;28;20020;-79
2023/07/14 08:47:13;;;;;;;2.40;1.90;;;20.70;85.30;;;;;;5039025;28;20030;-79
2023/07/14 08:50:11;;;;;;;4.10;2.03;;;20.70;86.50;;;;;;5025801;28;20021;-79
2023/07/14 08:52:39;;;;;;;4.45;1.92;;;20.70;86.60;;;;;;4964739;28;20090;-78
2023/07/14 08:55:27;;;;;;;5.25;2.17;;;20.70;87.30;;;;;;4970171;28;20117;-77
2023/07/14 08:58:24;;;;;;;4.82;2.00;;;20.70;87.90;;;;;;4966038;28;20019;-78
2023/07/14 09:00:49;;;;;;;6.30;2.05;;;20.40;86.80;;;;;;4917011;29;20035;-79
2023/07/14 09:03:44;;;;;;;6.88;2.13;;;20.70;86.70;;;;;;4918140;29;20401;-79
2023/07/14 09:06:23;;;;;;;8.27;1.67;;;20.80;86.90;;;;;;4917117;29;20055;-78
2023/07/14 09:08:51;;;;;;;7.22;1.23;;;20.90;85.10;;;;;;4912260;29;20033;-78
2023/07/14 09:11:44;;;;;;;6.47;1.95;;;20.80;84.60;;;;;;4913661;29;20174;-78
2023/07/14 09:14:31;;;;;;;5.38;2.45;;;20.80;85.00;;;;;;4917580;29;20035;-79
2023/07/14 09:17:23;;;;;;;7.45;1.95;;;20.80;85.10;;;;;;4921287;29;20476;-79
2023/07/14 09:20:12;;;;;;;4.95;1.63;;;20.80;85.10;;;;;;4916635;29;20059;-79
2023/07/14 09:22:50;;;;;;;3.80;1.77;;;20.90;83.90;;;;;;4913561;29;20080;-79
2023/07/14 09:25:48;;;;;;;3.85;2.00;;;20.80;84.70;;;;;;4908947;29;20197;-79
2023/07/14 09:28:33;;;;;;;5.03;1.90;;;20.90;85.20;;;;;;4936798;28;20023;-78
2023/07/14 09:31:05;;;;;;;4.60;2.15;;;20.90;84.20;;;;;;4952405;28;20039;-79
2023/07/14 09:33:39;;;;;;;7.85;1.85;;;20.90;84.10;;;;;;4948568;28;20034;-78
2023/07/14 09:36:09;;;;;;;8.35;2.38;;;20.90;83.50;;;;;;4956875;28;20183;-79
2023/07/14 09:39:13;;;;;;;9.70;2.35;;;21.00;83.60;;;;;;5047170;28;20021;-82
2023/07/14 09:41:39;;;;;;;5.05;1.83;;;20.90;82.40;;;;;;4964219;28;20035;-77
2023/07/14 09:44:08;;;;;;;4.57;2.20;;;21.00;81.90;;;;;;4955626;28;20038;-79
2023/07/14 09:46:44;;;;;;;3.45;1.85;;;21.00;82.10;;;;;;4960700;28;20492;-79
2023/07/14 09:49:20;;;;;;;4.60;2.22;;;21.00;83.00;;;;;;4965292;28;20027;-78
2023/07/14 09:52:27;;;;;;;3.13;2.30;;;21.00;82.20;;;;;;4963959;28;20524;-80
2023/07/14 09:54:55;;;;;;;374.58;14.55;;;21.10;81.00;;;;;;4963982;28;20462;-78
2023/07/14 09:57:32;;;;;;;10.05;2.20;;;21.00;81.30;;;;;;4963817;28;20076;-78
2023/07/14 10:00:11;;;;;;;8.85;2.15;;;21.10;80.90;;;;;;4964587;28;20113;-78
2023/07/14 10:02:37;;;;;;;6.28;2.28;;;21.10;80.80;;;;;;4962949;28;20032;-77
2023/07/14 10:05:31;;;;;;;7.18;2.00;;;21.10;80.30;;;;;;4966842;28;20046;-78
2023/07/14 10:07:56;;;;;;;13.35;3.60;;;21.10;80.50;;;;;;4956659;28;20070;-78
2023/07/14 10:10:26;;;;;;;6.63;3.22;;;21.10;81.50;;;;;;4949595;28;20027;-78
2023/07/14 10:12:52;;;;;;;4.10;1.67;;;21.10;80.40;;;;;;4961287;28;20454;-78
2023/07/14 10:15:30;;;;;;;4.68;1.90;;;21.10;80.90;;;;;;4964915;28;20039;-78
2023/07/14 10:17:57;;;;;;;6.40;1.90;;;21.20;80.20;;;;;;5029899;28;20049;-77
2023/07/14 10:20:23;;;;;;;4.20;2.10;;;21.10;80.40;;;;;;5041236;28;20031;-78
2023/07/14 10:22:52;;;;;;;5.40;2.00;;;21.20;80.60;;;;;;5045211;28;20082;-79
2023/07/14 10:25:19;;;;;;;4.32;1.67;;;21.20;81.00;;;;;;5045108;28;20024;-76
2023/07/14 10:27:56;;;;;;;2.97;1.92;;;21.10;79.40;;;;;;5039770;28;20074;-91
2023/07/14 10:30:31;;;;;;;2.97;1.90;;;21.10;78.80;;;;;;5025426;28;20116;-76
2023/07/14 10:33:00;;;;;;;1.83;1.60;;;21.20;79.70;;;;;;5044125;28;20020;-76
2023/07/14 10:35:29;;;;;;;6.10;1.80;;;21.20;78.70;;;;;;5046327;28;20021;-76
2023/07/14 10:38:00;;;;;;;4.75;1.90;;;21.20;78.30;;;;;;5042587;28;20029;-77
2023/07/14 10:40:28;;;;;;;3.05;1.50;;;21.20;78.60;;;;;;5022328;28;20505;-76
2023/07/14 10:43:04;;;;;;;4.72;1.33;;;21.20;78.20;;;;;;5035751;28;20041;-76
2023/07/14 10:45:34;;;;;;;2.15;1.58;;;21.20;77.30;;;;;;5044867;28;20043;-76
2023/07/14 10:48:04;;;;;;;1.92;1.30;;;21.20;77.50;;;;;;5043199;28;20888;-76
2023/07/14 10:50:37;;;;;;;3.40;1.20;;;21.20;78.10;;;;;;5040622;28;20025;-76
2023/07/14 10:53:20;;;;;;;1.60;1.50;;;21.20;76.50;;;;;;5040235;28;20028;-76
2023/07/14 10:55:48;;;;;;;3.70;1.85;;;21.10;75.70;;;;;;5041201;28;20021;-76
2023/07/14 10:58:28;;;;;;;4.65;2.17;;;21.10;77.30;;;;;;5039996;28;20022;-75
2023/07/14 11:01:01;;;;;;;3.65;1.58;;;21.20;77.20;;;;;;5038461;28;20036;-77
2023/07/14 11:03:38;;;;;;;1.83;1.63;;;21.20;76.90;;;;;;5038214;28;20032;-76
2023/07/14 11:06:10;;;;;;;2.72;1.63;;;21.20;76.30;;;;;;5042272;28;20458;-76
2023/07/14 11:08:36;;;;;;;5.03;2.15;;;21.20;75.80;;;;;;5039369;28;20075;-76
2023/07/14 11:11:11;;;;;;;6.05;1.65;;;21.20;76.10;;;;;;5037698;28;20108;-76
2023/07/14 11:13:49;;;;;;;3.05;1.80;;;21.30;78.30;;;;;;5040174;28;20075;-77
2023/07/14 11:16:26;;;;;;;6.97;1.60;;;21.30;77.50;;;;;;5039307;28;20036;-76
2023/07/14 11:19:06;;;;;;;3.67;1.65;;;21.30;77.20;;;;;;5045308;28;20031;-77
2023/07/14 11:21:32;;;;;;;;;;;21.30;78.30;;;;;;5052428;28;20025;-77
2023/07/14 11:24:07;;;;;;;6.13;1.63;;;21.40;78.10;;;;;;5059714;28;19951;-77
2023/07/14 11:27:09;;;;;;;7.45;1.63;;;21.50;78.40;;;;;;5065534;28;20020;-78
2023/07/14 11:30:00;;;;;;;5.22;1.83;;;21.50;79.30;;;;;;5054754;28;20064;-78
2023/07/14 11:32:40;;;;;;;3.10;2.10;;;21.50;79.00;;;;;;5057826;28;20112;-77
2023/07/14 11:35:12;;;;;;;;;;;21.50;78.70;;;;;;5059965;28;20013;-77
2023/07/14 11:37:55;;;;;;;1.77;1.50;;;21.50;79.10;;;;;;5065925;28;19904;-78
2023/07/14 11:40:23;;;;;;;7.15;2.05;;;21.60;79.50;;;;;;5068357;28;20025;-77
2023/07/14 11:42:56;;;;;;;9.45;2.13;;;21.50;78.60;;;;;;5063579;28;20151;-77
2023/07/14 11:45:26;;;;;;;4.07;1.83;;;21.50;78.30;;;;;;5058086;28;20381;-78
2023/07/14 11:47:55;;;;;;;2.38;1.80;;;21.50;78.40;;;;;;5056276;28;20050;-81
2023/07/14 11:50:30;;;;;;;3.28;2.00;;;21.50;78.40;;;;;;5045745;28;20028;-75
2023/07/14 11:53:17;;;;;;;2.63;1.67;;;21.60;78.20;;;;;;5062870;28;20404;-75
2023/07/14 11:55:47;;;;;;;2.55;1.80;;;21.60;76.90;;;;;;5049879;28;20035;-75
2023/07/14 11:58:30;;;;;;;3.67;2.20;;;21.60;77.20;;;;;;5064458;28;20028;-75
2023/07/14 12:01:00;;;;;;;54.80;3.00;;;21.50;77.10;;;;;;5061388;28;20112;-75
2023/07/14 12:03:39;;;;;;;102.13;4.50;;;21.50;77.10;;;;;;5054581;28;20024;-74
2023/07/14 12:06:20;;;;;;;4.55;1.67;;;21.50;78.60;;;;;;5057010;28;20355;-75
2023/07/14 12:09:04;;;;;;;12.00;2.00;;;21.50;80.20;;;;;;5066609;28;20070;-75
2023/07/14 12:11:38;;;;;;;3.75;2.20;;;21.50;80.40;;;;;;5072136;28;20020;-74
2023/07/14 12:14:29;;;;;;;4.47;1.80;;;21.50;79.30;;;;;;5061592;28;20487;-76
2023/07/14 12:16:57;;;;;;;2.55;1.38;;;21.70;80.10;;;;;;5061490;28;20032;-76
2023/07/14 12:19:49;;;;;;;4.85;2.10;;;21.80;79.10;;;;;;5060908;28;20017;-76
2023/07/14 12:22:37;;;;;;;2.95;1.65;;;21.80;78.50;;;;;;5044911;28;20551;-76
2023/07/14 12:25:17;;;;;;;4.40;1.60;;;21.80;79.40;;;;;;5049862;28;20033;-76
2023/07/14 12:27:50;;;;;;;7.95;2.00;;;21.70;79.10;;;;;;5046524;28;20041;-84
2023/07/14 12:30:20;;;;;;;2.83;1.60;;;21.70;78.40;;;;;;5042845;28;21016;-83
2023/07/14 12:32:46;;;;;;;;;;;21.70;77.90;;;;;;5023948;28;20027;-89
2023/07/14 12:35:15;;;;;;;3.22;2.15;;;21.70;78.30;;;;;;5021402;28;19909;-89
2023/07/14 12:37:41;;;;;;;6.10;1.88;;;21.70;77.90;;;;;;5034514;28;20032;-77
2023/07/14 12:40:19;;;;;;;2.53;1.90;;;21.60;77.80;;;;;;5048264;28;20025;-79
2023/07/14 12:42:45;;;;;;;3.60;1.80;;;21.50;77.40;;;;;;5029792;28;20028;-79
2023/07/14 12:45:17;;;;;;;6.03;2.03;;;21.50;78.60;;;;;;5026953;28;20025;-81
2023/07/14 12:47:46;;;;;;;4.18;1.85;;;21.60;77.40;;;;;;5042509;28;20132;-80
2023/07/14 12:50:16;;;;;;;3.78;1.83;;;21.50;77.90;;;;;;5024591;28;20026;-79
2023/07/14 12:52:44;;;;;;;3.90;1.75;;;21.50;77.50;;;;;;5045831;28;20032;-80
2023/07/14 12:55:14;;;;;;;5.13;1.63;;;21.60;77.30;;;;;;5044481;28;20017;-83
2023/07/14 12:57:40;;;;;;;1.77;1.63;;;21.70;77.80;;;;;;5028369;28;20470;-79
2023/07/14 13:00:25;;;;;;;12.35;2.25;;;21.70;77.60;;;;;;5047098;28;20032;-80
2023/07/14 13:02:52;;;;;;;3.22;1.88;;;21.80;77.80;;;;;;5044506;28;20037;-83
2023/07/14 13:05:19;;;;;;;5.78;2.22;;;21.80;78.50;;;;;;5025843;28;20025;-80